Kezdőlap
METAR-TAF:

METAR-TAF

Repülőterek :

Katowice, Lengyelország

földrajzi szélesség: 50-28-27N, földrajzi hosszúság: 019-04-48E, magasság: 284 m

Jelenlegi meteorológiai megfigyelések

A jelentés 22 perccel ezelõtt készült, 20:00 UTC
Nyugati szél 5 kt
Hőmérséklet 5°C
Páratartalom 87%
Légköri nyomás 1026 hPa
Látótávolság 10 km, vagy több
Szórványos felhőzet 3500 lábon
Szakadozott felhőzet 4500 lábon

METAR: EPKT 202000Z 28005KT 9999 SCT035 BKN045 05/03 Q1026

Idő: 22:22 (20:22 UTC)

Előrejelzés

A jelentés 2 órával és 52 perccel ezelõtt készült, 17:30 UTC
Az előrejelzés 20-én 18 óra UTC és 21-én 18 óra UTC között érvényes
Északnyugati szél 7 kt
Látótávolság: 6000 m
Szakadozott felhőzet 2000 lábon
20-én 18 óra UTC és 21-én 15 óra UTC között ideiglenes
Látótávolság: 2000 m
Szakadozott felhőzet 400 lábon
Borult 1000 lábon
esõ, Párásság

TAF: EPKT 201730Z 2018/2118 32007KT 6000 BKN020 TEMPO 2018/2115 2000 RA BR BKN004 OVC010

Meteorológiai megfigyelések és előrejelzések több, mint 4000 repülőtéren (METAR és TAF jelentéseket).

A térképen piros és sárga pontok jelzik az elérhető meteorológiai állomásokat.

Mozgassa az egeret a pont fölött, hogy megjelenjen az állomás neve.

Azután kattintson az időjárási megfigyelések és előrejelzések megtekintéséhez.

A térkép megváltoztatása: kattintson a fekete keresztel jelölt zöld gombra ráközelítéshez, a vonallal jelölt zöld gombra távolításhoz, vagy a zöld nyilakra a szomszédos térképek eléréséhez.


METAR-TAF: